Time;durP1;ratioP1;P1;durP2;ratioP2;P2;SDS_P1;SDS_P2;PMS_P1;PMS_P2;Temp;Humidity;BMP_temperature;BMP_pressure;BME280_temperature;BME280_humidity;BME280_pressure;Samples;Min_cycle;Max_cycle;Signal;HPM_P1;HPM_P2
2022/03/18 00:00:39;;;;;;;29.63;19.48;;;;;;;5.53;100.00;98144.75;2066561;28;20225;-62
2022/03/18 00:01:41;;;;;;;36.95;22.20;;;;;;;5.40;100.00;98142.47;2072307;28;20248;-62
2022/03/18 00:02:43;;;;;;;44.78;21.17;;;;;;;5.48;100.00;98141.38;2063617;28;20282;-62
2022/03/18 00:03:44;;;;;;;31.58;20.65;;;;;;;5.46;100.00;98142.31;2067504;28;20195;-62
2022/03/18 00:04:46;;;;;;;31.98;20.70;;;;;;;5.48;100.00;98143.13;2067982;28;20201;-62
2022/03/18 00:05:48;;;;;;;33.67;20.75;;;;;;;5.48;100.00;98146.59;2067288;28;20226;-62
2022/03/18 00:06:50;;;;;;;31.58;19.52;;;;;;;5.48;100.00;98143.97;2069729;28;20223;-62
2022/03/18 00:07:52;;;;;;;31.13;19.85;;;;;;;5.44;100.00;98144.94;2068117;28;20638;-62
2022/03/18 00:08:53;;;;;;;35.85;20.20;;;;;;;5.43;100.00;98147.56;2069584;28;20260;-62
2022/03/18 00:09:55;;;;;;;33.13;20.33;;;;;;;5.52;100.00;98144.78;2067751;28;20209;-62
2022/03/18 00:10:56;;;;;;;28.95;20.00;;;;;;;5.55;100.00;98142.13;2066258;28;20596;-62
2022/03/18 00:11:58;;;;;;;29.90;20.35;;;;;;;5.58;100.00;98147.22;2067807;28;20553;-62
2022/03/18 00:12:59;;;;;;;31.95;21.17;;;;;;;5.58;100.00;98146.38;2067060;28;20260;-63
2022/03/18 00:14:03;;;;;;;32.15;20.73;;;;;;;5.54;100.00;98143.84;2070845;28;20194;-62
2022/03/18 00:15:09;;;;;;;33.78;20.80;;;;;;;5.52;100.00;98137.81;2069949;28;20289;-63
2022/03/18 00:16:11;;;;;;;38.88;20.48;;;;;;;5.58;100.00;98147.22;2070350;28;20197;-62
2022/03/18 00:17:12;;;;;;;29.85;19.20;;;;;;;5.51;100.00;98145.69;2068681;28;20871;-63
2022/03/18 00:18:14;;;;;;;33.25;19.67;;;;;;;5.39;100.00;98144.22;2071437;28;20194;-62
2022/03/18 00:19:15;;;;;;;30.58;19.85;;;;;;;5.40;100.00;98145.91;2069248;28;20206;-63
2022/03/18 00:20:17;;;;;;;30.42;19.20;;;;;;;5.40;100.00;98142.47;2063987;28;20217;-63
2022/03/18 00:21:19;;;;;;;32.75;20.30;;;;;;;5.53;100.00;98144.75;2065786;28;20200;-63
2022/03/18 00:22:21;;;;;;;32.15;19.83;;;;;;;5.50;100.00;98152.59;2066669;28;20711;-63
2022/03/18 00:23:23;;;;;;;30.17;19.08;;;;;;;5.45;100.00;98151.00;2064367;28;20519;-62
2022/03/18 00:24:24;;;;;;;36.70;20.20;;;;;;;5.45;100.00;98140.59;2064385;28;20199;-62
2022/03/18 00:25:26;;;;;;;28.15;20.25;;;;;;;5.50;100.00;98151.75;2066862;28;20222;-63
2022/03/18 00:26:27;;;;;;;39.10;20.65;;;;;;;5.52;100.00;98149.97;2067693;28;20194;-63
2022/03/18 00:27:29;;;;;;;32.58;20.30;;;;;;;5.48;100.00;98148.34;2067963;28;20313;-62
2022/03/18 00:28:30;;;;;;;32.72;20.63;;;;;;;5.35;100.00;98151.22;2067256;28;20199;-62
2022/03/18 00:29:33;;;;;;;29.33;18.83;;;;;;;5.45;100.00;98158.78;2070824;28;20205;-62
2022/03/18 00:30:34;;;;;;;27.75;18.83;;;;;;;5.40;100.00;98152.88;2065000;28;20241;-63
2022/03/18 00:31:35;;;;;;;33.75;19.20;;;;;;;5.44;100.00;98149.31;2070398;28;20527;-62
2022/03/18 00:32:38;;;;;;;27.55;19.55;;;;;;;5.38;100.00;98154.66;2068164;28;20636;-63
2022/03/18 00:34:01;;;;;;;30.00;19.67;;;;;;;5.38;100.00;98154.66;2069929;28;20233;-62
2022/03/18 00:35:03;;;;;;;31.70;17.67;;;;;;;5.39;100.00;98156.34;2069489;28;20313;-62
2022/03/18 00:36:05;;;;;;;27.77;18.85;;;;;;;5.30;100.00;98158.25;2069833;28;20286;-63
2022/03/18 00:37:07;;;;;;;32.30;19.80;;;;;;;5.43;100.00;98158.84;2069119;28;20211;-62
2022/03/18 00:38:08;;;;;;;35.97;19.10;;;;;;;5.45;100.00;98159.66;2071884;28;20203;-63
2022/03/18 00:39:10;;;;;;;30.25;19.65;;;;;;;5.46;100.00;98157.91;2071355;28;20201;-62
2022/03/18 00:40:11;;;;;;;31.38;19.75;;;;;;;5.49;100.00;98163.06;2070997;28;20194;-63
2022/03/18 00:41:13;;;;;;;27.77;18.23;;;;;;;5.47;100.00;98163.09;2072050;28;20332;-62
2022/03/18 00:42:15;;;;;;;29.45;19.88;;;;;;;5.47;100.00;98162.22;2072681;28;20198;-62
2022/03/18 00:43:16;;;;;;;27.83;19.83;;;;;;;5.45;100.00;98162.25;2071990;28;20557;-62
2022/03/18 00:44:18;;;;;;;29.75;18.63;;;;;;;5.46;100.00;98163.97;2071090;28;20207;-62
2022/03/18 00:45:19;;;;;;;31.63;19.73;;;;;;;5.24;100.00;98161.00;2068152;28;21215;-63
2022/03/18 00:46:23;;;;;;;34.85;18.95;;;;;;;5.28;100.00;98164.41;2067509;28;20199;-63
2022/03/18 00:52:45;;;;;;;28.63;18.38;;;;;;;5.45;100.00;98161.38;2068290;28;20202;-63
2022/03/18 00:53:46;;;;;;;30.73;18.75;;;;;;;5.38;100.00;98160.69;2069586;28;20221;-63
2022/03/18 00:54:48;;;;;;;29.00;19.23;;;;;;;5.40;100.00;98158.91;2067884;28;20210;-62
2022/03/18 00:55:49;;;;;;;31.67;18.88;;;;;;;5.34;100.00;98162.50;2068526;28;20232;-62
2022/03/18 00:56:51;;;;;;;29.20;18.45;;;;;;;5.36;100.00;98162.47;2067755;28;20325;-62
2022/03/18 00:57:53;;;;;;;29.63;18.40;;;;;;;5.33;100.00;98163.41;2068731;28;20253;-63
2022/03/18 00:58:54;;;;;;;39.15;18.85;;;;;;;5.30;100.00;98158.25;2068783;28;20213;-62
2022/03/18 00:59:55;;;;;;;29.65;18.52;;;;;;;5.28;100.00;98165.25;2067762;28;20202;-63
2022/03/18 01:00:57;;;;;;;31.88;19.20;;;;;;;5.11;100.00;98164.75;2068436;28;20226;-63
2022/03/18 01:01:59;;;;;;;29.75;20.08;;;;;;;5.22;100.00;98165.38;2068184;28;20199;-62
2022/03/18 01:03:00;;;;;;;32.85;19.35;;;;;;;5.23;100.00;98161.03;2071118;28;20197;-63
2022/03/18 01:04:02;;;;;;;33.17;19.38;;;;;;;5.23;100.00;98156.69;2071040;28;20198;-63
2022/03/18 01:05:04;;;;;;;32.65;20.85;;;;;;;5.30;100.00;98154.81;2070146;28;20232;-62
2022/03/18 01:06:06;;;;;;;29.65;19.65;;;;;;;5.31;100.00;98157.41;2066866;28;20245;-63
2022/03/18 01:07:08;;;;;;;36.92;20.58;;;;;;;5.20;100.00;98154.19;2067690;28;20194;-62
2022/03/18 01:08:09;;;;;;;31.65;19.55;;;;;;;5.18;100.00;98153.34;2063758;28;20233;-63
2022/03/18 01:09:11;;;;;;;27.10;18.05;;;;;;;5.13;100.00;98152.59;2063521;28;20494;-62
2022/03/18 01:10:13;;;;;;;39.80;22.10;;;;;;;5.19;100.00;98149.00;2065405;28;20207;-62
2022/03/18 01:11:15;;;;;;;29.08;18.67;;;;;;;5.24;100.00;98162.75;2066940;28;20205;-62
2022/03/18 01:12:17;;;;;;;30.67;20.38;;;;;;;5.24;100.00;98152.38;2068313;28;20200;-63
2022/03/18 01:13:19;;;;;;;32.53;20.58;;;;;;;5.23;100.00;98155.84;2067639;28;20677;-62
2022/03/18 01:14:21;;;;;;;33.28;19.70;;;;;;;5.31;100.00;98164.31;2067722;28;20245;-62
2022/03/18 01:15:22;;;;;;;30.25;19.90;;;;;;;5.35;100.00;98165.94;2066540;28;20225;-63
2022/03/18 01:16:24;;;;;;;32.75;19.98;;;;;;;5.33;100.00;98163.41;2069210;28;20198;-63
2022/03/18 01:17:26;;;;;;;29.95;19.33;;;;;;;5.27;100.00;98162.66;2068281;28;20255;-63
2022/03/18 01:18:27;;;;;;;31.17;19.52;;;;;;;5.31;100.00;98160.00;2068049;28;20194;-62
2022/03/18 01:19:28;;;;;;;31.48;19.45;;;;;;;5.31;100.00;98167.78;2066189;28;20202;-63
2022/03/18 01:20:30;;;;;;;28.48;18.17;;;;;;;5.34;100.00;98170.28;2068164;28;20249;-62
2022/03/18 01:21:31;;;;;;;27.40;17.92;;;;;;;5.34;100.00;98169.44;2068284;28;20195;-63
2022/03/18 01:22:33;;;;;;;32.83;19.98;;;;;;;5.31;100.00;98166.91;2070189;28;20543;-63
2022/03/18 01:23:34;;;;;;;30.05;19.33;;;;;;;5.22;100.00;98167.97;2066270;28;20200;-63
2022/03/18 01:24:37;;;;;;;29.88;18.90;;;;;;;5.20;100.00;98159.38;2070718;28;20710;-63
2022/03/18 01:25:39;;;;;;;31.92;18.35;;;;;;;5.24;100.00;98174.00;2066985;28;20599;-62
2022/03/18 01:26:40;;;;;;;29.35;18.50;;;;;;;5.21;100.00;98166.25;2070781;28;20194;-63
2022/03/18 01:27:42;;;;;;;28.02;19.20;;;;;;;5.25;100.00;98167.03;2069728;28;20199;-62
2022/03/18 01:28:44;;;;;;;31.95;19.63;;;;;;;5.26;100.00;98164.44;2066168;28;20545;-63
2022/03/18 01:29:45;;;;;;;29.73;19.13;;;;;;;5.28;100.00;98164.41;2066410;28;20198;-62
2022/03/18 01:30:46;;;;;;;26.40;18.13;;;;;;;5.25;100.00;98149.75;2068580;28;20578;-62
2022/03/18 01:31:48;;;;;;;28.67;18.23;;;;;;;5.38;100.00;98162.44;2068306;28;20249;-62
2022/03/18 01:32:50;;;;;;;31.52;18.73;;;;;;;5.31;100.00;98165.19;2067085;28;20206;-62
2022/03/18 01:33:53;;;;;;;25.95;17.33;;;;;;;5.30;100.00;98163.47;2067254;28;20210;-62
2022/03/18 01:34:54;;;;;;;29.15;17.00;;;;;;;5.34;100.00;98165.09;2067987;28;20352;-63
2022/03/18 01:35:56;;;;;;;30.77;19.38;;;;;;;5.42;100.00;98161.47;2066929;28;20226;-63
2022/03/18 01:36:57;;;;;;;28.20;18.83;;;;;;;5.41;100.00;98167.53;2068629;28;20534;-62
2022/03/18 01:37:59;;;;;;;30.88;19.92;;;;;;;5.26;100.00;98164.44;2067764;28;20203;-63
2022/03/18 01:39:00;;;;;;;28.20;17.40;;;;;;;5.23;100.00;98167.06;2068479;28;20534;-62
2022/03/18 01:40:02;;;;;;;24.02;17.30;;;;;;;5.25;100.00;98167.03;2069407;28;20201;-62
2022/03/18 01:41:05;;;;;;;27.42;17.38;;;;;;;5.21;100.00;98163.66;2065849;28;20275;-63
2022/03/18 01:42:06;;;;;;;31.02;18.95;;;;;;;5.32;100.00;98169.47;2066413;28;20198;-63
2022/03/18 01:43:09;;;;;;;25.45;17.15;;;;;;;5.22;100.00;98160.19;2067883;28;20549;-62
2022/03/18 01:44:12;;;;;;;28.17;17.73;;;;;;;5.23;100.00;98166.22;2068917;28;20629;-63
2022/03/18 01:45:14;;;;;;;23.20;16.80;;;;;;;5.29;100.00;98169.56;2070251;28;20201;-62
2022/03/18 01:46:17;;;;;;;33.08;17.77;;;;;;;5.30;100.00;98166.06;2066624;28;20202;-62
2022/03/18 01:47:18;;;;;;;29.52;17.70;;;;;;;5.26;100.00;98161.81;2069555;28;20683;-63
2022/03/18 01:48:20;;;;;;;25.85;17.05;;;;;;;5.35;100.00;98165.94;2068198;28;20696;-63
2022/03/18 01:49:21;;;;;;;26.85;16.85;;;;;;;5.25;100.00;98165.31;2068965;28;20229;-63
2022/03/18 01:50:23;;;;;;;25.15;17.42;;;;;;;5.27;100.00;98166.16;2066201;28;20254;-63
2022/03/18 01:51:24;;;;;;;30.40;17.45;;;;;;;5.29;100.00;98174.75;2068624;28;20198;-62
2022/03/18 01:52:27;;;;;;;28.85;18.38;;;;;;;5.30;100.00;98168.66;2067742;28;20201;-63
2022/03/18 01:53:28;;;;;;;25.08;16.00;;;;;;;5.24;100.00;98163.59;2067474;28;20199;-63
2022/03/18 01:54:46;;;;;;;27.60;17.90;;;;;;;5.26;100.00;98169.63;2067870;28;20197;-63
2022/03/18 01:55:48;;;;;;;26.38;16.20;;;;;;;5.22;100.00;98167.97;2069073;28;20240;-62
2022/03/18 01:56:50;;;;;;;25.90;16.45;;;;;;;5.29;100.00;98163.50;2068177;28;20210;-63
2022/03/18 01:57:52;;;;;;;23.95;16.58;;;;;;;5.32;100.00;98172.06;2068343;28;20201;-62
2022/03/18 01:58:53;;;;;;;25.10;16.50;;;;;;;5.25;100.00;98165.31;2067044;28;20543;-63
2022/03/18 01:59:56;;;;;;;29.65;17.25;;;;;;;5.27;100.00;98166.16;2069355;28;20202;-63
2022/03/18 02:00:58;;;;;;;25.70;16.63;;;;;;;5.26;100.00;98160.97;2066277;28;20696;-63
2022/03/18 02:01:59;;;;;;;29.98;16.80;;;;;;;5.29;100.00;98166.97;2066483;28;20205;-62
2022/03/18 02:03:01;;;;;;;21.30;15.70;;;;;;;5.38;100.00;98171.09;2067687;28;20721;-62
2022/03/18 02:04:03;;;;;;;29.23;18.00;;;;;;;5.27;100.00;98168.75;2067845;28;20194;-62
2022/03/18 02:05:10;;;;;;;31.92;16.40;;;;;;;5.27;100.00;98168.75;2066959;28;20387;-63
2022/03/18 02:06:12;;;;;;;25.77;18.05;;;;;;;5.25;100.00;98173.13;2063614;28;20202;-62
2022/03/18 02:07:14;;;;;;;31.17;17.77;;;;;;;5.27;100.00;98173.94;2061379;28;20235;-63
2022/03/18 02:08:17;;;;;;;32.42;17.30;;;;;;;5.29;100.00;98169.56;2068607;28;20204;-62
2022/03/18 02:09:20;;;;;;;25.70;17.40;;;;;;;5.32;100.00;98174.66;2070265;28;20199;-63
2022/03/18 02:10:21;;;;;;;28.85;16.55;;;;;;;5.28;100.00;98177.38;2070696;28;20629;-63
2022/03/18 02:11:25;;;;;;;31.48;17.17;;;;;;;5.15;100.00;98179.38;2068060;28;20199;-62
2022/03/18 02:12:27;;;;;;;24.42;16.35;;;;;;;5.19;100.00;98173.22;2065729;28;20679;-62
2022/03/18 02:13:30;;;;;;;23.15;16.90;;;;;;;5.22;100.00;98175.78;2068731;28;20202;-62
2022/03/18 02:14:38;;;;;;;26.02;17.58;;;;;;;5.27;100.00;98181.72;2069276;28;20221;-63
2022/03/18 02:15:40;;;;;;;33.08;16.48;;;;;;;5.38;100.00;98178.88;2068797;28;21019;-63
2022/03/18 02:16:41;;;;;;;24.85;15.65;;;;;;;5.35;100.00;98179.81;2067273;28;20206;-63
2022/03/18 02:17:43;;;;;;;25.83;16.30;;;;;;;5.36;100.00;98185.84;2069218;28;20189;-63
2022/03/18 02:18:44;;;;;;;27.90;18.00;;;;;;;5.30;100.00;98178.19;2068642;28;20198;-63
2022/03/18 02:19:47;;;;;;;22.85;15.57;;;;;;;5.28;100.00;98175.63;2068378;28;20229;-62
2022/03/18 02:20:48;;;;;;;26.10;17.05;;;;;;;5.39;100.00;98183.19;2070069;28;20681;-63
2022/03/18 02:21:53;;;;;;;24.42;16.05;;;;;;;5.26;100.00;98186.97;2068466;28;20760;-62
2022/03/18 02:22:54;;;;;;;28.13;17.95;;;;;;;5.26;100.00;98179.16;2068998;28;20209;-62
2022/03/18 02:23:57;;;;;;;27.90;16.42;;;;;;;5.25;100.00;98186.09;2067890;28;20209;-62
2022/03/18 02:24:59;;;;;;;28.00;16.58;;;;;;;5.18;100.00;98184.53;2068253;28;20210;-62
2022/03/18 02:26:00;;;;;;;23.25;16.88;;;;;;;5.19;100.00;98185.38;2066333;28;20233;-63
2022/03/18 02:27:02;;;;;;;19.73;15.23;;;;;;;5.23;100.00;98185.25;2068068;28;20198;-62
2022/03/18 02:28:04;;;;;;;23.60;16.83;;;;;;;5.12;100.00;98184.66;2068130;28;20522;-63
2022/03/18 02:29:07;;;;;;;25.85;16.55;;;;;;;5.22;100.00;98188.75;2067865;28;20207;-63
2022/03/18 02:30:09;;;;;;;22.05;14.50;;;;;;;5.20;100.00;98187.94;2068539;28;20213;-63
2022/03/18 02:31:10;;;;;;;23.95;15.50;;;;;;;5.24;100.00;98184.38;2066727;28;20228;-63
2022/03/18 02:32:18;;;;;;;25.58;16.77;;;;;;;5.19;100.00;98191.41;2066285;28;20197;-63
2022/03/18 02:33:19;;;;;;;24.55;16.63;;;;;;;5.23;100.00;98187.84;2065004;28;20199;-63
2022/03/18 02:34:23;;;;;;;28.38;16.02;;;;;;;5.20;100.00;98187.94;2067912;28;20206;-63
2022/03/18 02:35:28;;;;;;;24.23;14.30;;;;;;;5.20;100.00;98187.94;2069843;28;20782;-62
2022/03/18 02:36:29;;;;;;;23.63;15.60;;;;;;;5.10;100.00;98183.84;2065262;28;20202;-62
2022/03/18 02:37:31;;;;;;;27.08;16.02;;;;;;;4.97;100.00;98179.78;2067391;28;20195;-63
2022/03/18 02:38:32;;;;;;;23.80;16.13;;;;;;;5.04;100.00;98183.97;2068190;28;20202;-63
2022/03/18 02:39:34;;;;;;;25.35;16.05;;;;;;;5.05;100.00;98189.13;2068375;28;20210;-62
2022/03/18 02:40:36;;;;;;;27.20;15.35;;;;;;;5.22;100.00;98180.13;2065346;28;20232;-62
2022/03/18 02:41:37;;;;;;;24.73;16.05;;;;;;;5.23;100.00;98187.00;2066852;28;20682;-62
2022/03/18 02:42:39;;;;;;;23.67;15.63;;;;;;;5.25;100.00;98183.50;2068279;28;20202;-62
2022/03/18 02:43:41;;;;;;;25.17;15.75;;;;;;;5.30;100.00;98191.19;2049090;28;20206;-63
2022/03/18 02:44:44;;;;;;;28.33;15.60;;;;;;;5.21;100.00;98188.78;2052880;28;20211;-62
2022/03/18 02:45:46;;;;;;;30.73;15.65;;;;;;;5.25;100.00;98187.84;2066884;28;20613;-62
2022/03/18 02:46:47;;;;;;;25.13;14.98;;;;;;;5.17;100.00;98182.81;2068016;28;20209;-62
2022/03/18 02:47:49;;;;;;;23.58;16.27;;;;;;;5.15;100.00;98189.78;2067312;28;20209;-62
2022/03/18 02:48:50;;;;;;;19.52;13.95;;;;;;;5.17;100.00;98189.75;2068360;28;20204;-63
2022/03/18 02:49:52;;;;;;;25.60;15.70;;;;;;;5.17;100.00;98188.00;2069380;28;20205;-62
2022/03/18 02:50:53;;;;;;;23.35;15.68;;;;;;;5.15;100.00;98184.56;2066074;28;20225;-62
2022/03/18 02:51:56;;;;;;;25.65;16.65;;;;;;;5.14;100.00;98188.09;2069184;28;20194;-62
2022/03/18 02:52:57;;;;;;;26.65;16.65;;;;;;;5.13;100.00;98191.56;2069973;28;20248;-62
2022/03/18 02:53:59;;;;;;;19.85;14.30;;;;;;;5.08;100.00;98189.06;2071071;28;20197;-62
2022/03/18 02:55:01;;;;;;;22.83;15.05;;;;;;;5.11;100.00;98198.53;2069824;28;20654;-63
2022/03/18 02:56:04;;;;;;;26.42;15.85;;;;;;;5.12;100.00;98190.72;2069499;28;20202;-63
2022/03/18 02:57:06;;;;;;;23.33;14.38;;;;;;;5.19;100.00;98191.41;2067962;28;20209;-63
2022/03/18 02:58:08;;;;;;;22.55;15.00;;;;;;;5.13;100.00;98194.16;2070615;28;20204;-63
2022/03/18 02:59:09;;;;;;;23.20;15.13;;;;;;;5.14;100.00;98198.47;2071911;28;20222;-63
2022/03/18 03:00:11;;;;;;;21.40;14.90;;;;;;;5.08;100.00;98196.00;2071294;28;20860;-62
2022/03/18 03:01:12;;;;;;;25.35;15.25;;;;;;;5.14;100.00;98201.91;2069740;28;20195;-63
2022/03/18 03:02:15;;;;;;;27.05;15.52;;;;;;;5.14;100.00;98201.06;2070059;28;20252;-62
2022/03/18 03:03:17;;;;;;;23.73;14.95;;;;;;;5.13;100.00;98204.53;2068776;28;20545;-63
2022/03/18 03:04:19;;;;;;;29.02;16.58;;;;;;;5.00;100.00;98208.28;2066335;28;20203;-63
2022/03/18 03:08:01;;;;;;;32.17;15.13;;;;;;;5.01;100.00;98212.59;2069186;28;20202;-62
2022/03/18 03:09:03;;;;;;;21.25;14.45;;;;;;;4.98;100.00;98212.66;2069154;28;20297;-62
2022/03/18 03:10:04;;;;;;;22.90;15.43;;;;;;;5.04;100.00;98202.16;2068533;28;20552;-62
2022/03/18 03:11:06;;;;;;;23.60;14.63;;;;;;;5.04;100.00;98207.34;2068291;28;20197;-62
2022/03/18 03:12:08;;;;;;;29.38;15.48;;;;;;;4.92;100.00;98211.91;2069236;28;20205;-62
2022/03/18 03:13:10;;;;;;;25.48;15.48;;;;;;;4.93;100.00;98208.41;2069281;28;20229;-62
2022/03/18 03:14:13;;;;;;;29.50;13.93;;;;;;;4.89;100.00;98211.94;2069497;28;20252;-62
2022/03/18 03:15:14;;;;;;;25.55;16.45;;;;;;;5.00;100.00;98210.88;2071985;28;20263;-63
2022/03/18 03:16:16;;;;;;;24.15;15.15;;;;;;;5.02;100.00;98209.09;2074498;28;20209;-62
2022/03/18 03:17:18;;;;;;;22.98;13.98;;;;;;;4.99;100.00;98216.97;2069673;28;20287;-63
2022/03/18 03:18:20;;;;;;;21.08;14.98;;;;;;;4.97;100.00;98213.56;2070387;28;20202;-63
2022/03/18 03:19:21;;;;;;;27.17;15.65;;;;;;;4.92;100.00;98218.81;2070025;28;20198;-62
2022/03/18 03:20:23;;;;;;;21.27;14.30;;;;;;;4.84;100.00;98219.00;2067553;28;20222;-62
2022/03/18 03:21:25;;;;;;;22.95;15.05;;;;;;;4.92;100.00;98216.22;2068679;28;20253;-62
2022/03/18 03:22:29;;;;;;;18.23;12.63;;;;;;;5.03;100.00;98216.00;2068533;28;20202;-62
2022/03/18 03:23:31;;;;;;;24.17;14.95;;;;;;;5.04;100.00;98216.00;2069748;28;20205;-63
2022/03/18 03:24:32;;;;;;;22.38;13.88;;;;;;;4.95;100.00;98219.63;2069721;28;20210;-62
2022/03/18 03:25:34;;;;;;;21.52;14.80;;;;;;;4.97;100.00;98219.59;2068201;28;20582;-62
2022/03/18 03:26:35;;;;;;;21.92;14.20;;;;;;;4.96;100.00;98223.09;2070622;28;20528;-62
2022/03/18 03:27:37;;;;;;;21.17;13.65;;;;;;;5.02;100.00;98219.47;2069870;28;20198;-62
2022/03/18 03:28:39;;;;;;;25.80;14.10;;;;;;;5.11;100.00;98224.50;2069090;28;20202;-62
2022/03/18 03:29:40;;;;;;;26.42;14.32;;;;;;;5.12;100.00;98226.22;2068488;28;20831;-62
2022/03/18 03:30:41;;;;;;;24.83;14.20;;;;;;;5.02;100.00;98224.69;2066505;28;20230;-62
2022/03/18 03:31:43;;;;;;;22.38;14.43;;;;;;;4.99;100.00;98232.53;2066695;28;20211;-62
2022/03/18 03:32:44;;;;;;;19.50;13.00;;;;;;;5.03;100.00;98232.44;2067647;28;20190;-63
2022/03/18 03:33:46;;;;;;;19.48;14.05;;;;;;;4.98;100.00;98225.63;2068958;28;20194;-62
2022/03/18 03:34:48;;;;;;;26.27;14.02;;;;;;;5.08;100.00;98228.03;2069729;28;20205;-63
2022/03/18 03:35:49;;;;;;;22.27;13.40;;;;;;;5.14;100.00;98237.44;2070221;28;20713;-62
2022/03/18 03:36:52;;;;;;;30.08;14.30;;;;;;;5.09;100.00;98232.31;2070703;28;20248;-63
2022/03/18 03:37:53;;;;;;;23.83;13.18;;;;;;;5.10;100.00;98235.78;2068811;28;20205;-63
2022/03/18 03:38:55;;;;;;;24.33;14.18;;;;;;;5.04;100.00;98233.31;2068221;28;20216;-62
2022/03/18 03:39:56;;;;;;;17.40;12.43;;;;;;;5.01;100.00;98223.81;2068876;28;20210;-62
2022/03/18 03:40:58;;;;;;;21.23;13.63;;;;;;;5.14;100.00;98234.84;2068334;28;20704;-63
2022/03/18 03:41:59;;;;;;;25.25;13.43;;;;;;;5.09;100.00;98236.66;2069439;28;20668;-62
2022/03/18 03:43:00;;;;;;;22.35;13.65;;;;;;;5.03;100.00;98234.19;2069949;28;20198;-63
2022/03/18 03:44:02;;;;;;;25.88;14.13;;;;;;;4.83;100.00;98234.59;2069333;28;20673;-62
2022/03/18 03:45:04;;;;;;;27.75;12.98;;;;;;;4.94;100.00;98227.47;2068242;28;20289;-63
2022/03/18 03:46:05;;;;;;;18.38;13.10;;;;;;;5.03;100.00;98234.19;2069014;28;20547;-62
2022/03/18 03:47:07;;;;;;;23.20;13.82;;;;;;;5.02;100.00;98228.16;2068764;28;20233;-62
2022/03/18 03:48:10;;;;;;;21.98;13.88;;;;;;;4.82;100.00;98235.47;2070286;28;20198;-62
2022/03/18 03:49:12;;;;;;;21.08;12.80;;;;;;;4.92;100.00;98239.59;2069365;28;20198;-62
2022/03/18 03:50:14;;;;;;;20.73;13.13;;;;;;;4.87;100.00;98233.66;2069424;28;20202;-63
2022/03/18 03:51:15;;;;;;;22.48;13.60;;;;;;;4.98;100.00;98233.41;2069153;28;20613;-62
2022/03/18 03:52:17;;;;;;;20.45;12.57;;;;;;;4.98;100.00;98239.50;2069712;28;20210;-62
2022/03/18 03:53:19;;;;;;;23.52;13.45;;;;;;;4.99;100.00;98237.75;2071688;28;20206;-63
2022/03/18 03:54:20;;;;;;;21.08;13.30;;;;;;;5.05;100.00;98235.00;2069325;28;20264;-62
2022/03/18 03:55:22;;;;;;;21.55;13.38;;;;;;;5.06;100.00;98236.75;2067922;28;20217;-63
2022/03/18 03:56:24;;;;;;;21.58;13.50;;;;;;;4.92;100.00;98245.66;2069418;28;20202;-62
2022/03/18 03:57:25;;;;;;;16.75;12.32;;;;;;;5.02;100.00;98246.34;2068350;28;20237;-63
2022/03/18 03:58:27;;;;;;;19.33;12.48;;;;;;;5.06;100.00;98244.53;2071490;28;20205;-62
2022/03/18 03:59:28;;;;;;;16.77;12.68;;;;;;;5.01;100.00;98239.41;2070588;28;20553;-62
2022/03/18 04:00:30;;;;;;;25.38;11.95;;;;;;;5.05;100.00;98245.41;2068835;28;20225;-63
2022/03/18 04:01:31;;;;;;;18.55;11.25;;;;;;;4.94;100.00;98236.09;2070052;28;20241;-63
2022/03/18 04:02:34;;;;;;;19.95;12.88;;;;;;;5.03;100.00;98242.81;2071234;28;20251;-62
2022/03/18 04:03:35;;;;;;;22.67;12.25;;;;;;;5.09;100.00;98247.88;2066148;28;20557;-62
2022/03/18 04:04:37;;;;;;;18.63;12.38;;;;;;;5.09;100.00;98245.28;2068943;28;20654;-63
2022/03/18 04:05:38;;;;;;;21.30;12.65;;;;;;;5.07;99.56;98243.63;2064919;28;20699;-62
2022/03/18 04:06:40;;;;;;;16.23;11.77;;;;;;;5.10;99.70;98244.41;2070885;28;20193;-62
2022/03/18 04:07:44;;;;;;;16.80;11.80;;;;;;;5.12;99.63;98242.66;2068537;28;20197;-63
2022/03/18 04:08:45;;;;;;;22.52;11.35;;;;;;;5.04;99.70;98248.91;2068978;28;20197;-63
2022/03/18 04:09:49;;;;;;;20.17;12.40;;;;;;;5.03;99.74;98247.19;2069783;28;20194;-63
2022/03/18 04:10:50;;;;;;;19.92;12.00;;;;;;;4.97;99.27;98244.72;2070044;28;20226;-63
2022/03/18 04:11:52;;;;;;;18.17;10.65;;;;;;;4.97;99.54;98255.09;2068007;28;20687;-62
2022/03/18 04:12:54;;;;;;;20.90;11.27;;;;;;;4.91;99.98;98246.53;2067552;28;20194;-62
2022/03/18 04:13:56;;;;;;;20.23;12.05;;;;;;;4.98;100.00;98259.38;2067723;28;20202;-63
2022/03/18 04:15:02;;;;;;;19.60;11.05;;;;;;;5.00;99.80;98260.22;2070927;28;20637;-62
2022/03/18 04:16:05;;;;;;;19.52;12.05;;;;;;;4.91;100.00;98254.31;2067119;28;20222;-62
2022/03/18 04:17:06;;;;;;;22.42;13.38;;;;;;;4.97;100.00;98255.94;2066588;28;20856;-63
2022/03/18 04:18:08;;;;;;;21.90;12.57;;;;;;;4.95;99.82;98255.97;2067911;28;20657;-62
2022/03/18 04:19:09;;;;;;;19.88;13.30;;;;;;;5.03;99.41;98262.75;2068395;28;20206;-63
2022/03/18 04:20:13;;;;;;;18.60;11.73;;;;;;;5.08;99.34;98264.38;2068691;28;20201;-62
2022/03/18 04:21:14;;;;;;;22.23;12.02;;;;;;;5.03;99.80;98262.75;2067625;28;20201;-62
2022/03/18 04:22:16;;;;;;;16.88;11.38;;;;;;;4.93;99.67;98257.75;2068398;28;20193;-62
2022/03/18 04:23:17;;;;;;;18.65;11.43;;;;;;;4.97;99.76;98273.28;2068195;28;20814;-62
2022/03/18 04:24:19;;;;;;;22.77;12.65;;;;;;;5.03;99.60;98262.75;2067137;28;20201;-62
2022/03/18 04:25:23;;;;;;;18.65;11.40;;;;;;;4.97;99.54;98268.06;2066573;28;20244;-62
2022/03/18 04:26:25;;;;;;;20.05;11.68;;;;;;;5.00;99.77;98270.59;2064908;28;20222;-63
2022/03/18 04:27:27;;;;;;;17.13;11.05;;;;;;;4.93;99.74;98275.06;2065463;28;20205;-62
2022/03/18 04:28:28;;;;;;;19.17;12.80;;;;;;;4.92;100.00;98275.94;2066616;28;20214;-63
2022/03/18 04:29:31;;;;;;;18.65;12.07;;;;;;;4.97;100.00;98283.66;2065935;28;20191;-62
2022/03/18 04:30:33;;;;;;;24.50;13.52;;;;;;;4.91;100.00;98279.44;2067911;28;20230;-62
2022/03/18 04:31:34;;;;;;;22.88;11.80;;;;;;;4.95;99.52;98281.94;2066455;28;20633;-62
2022/03/18 04:32:37;;;;;;;21.15;12.60;;;;;;;4.88;99.59;98284.66;2068277;28;20306;-63
2022/03/18 04:33:38;;;;;;;18.27;12.45;;;;;;;4.90;99.79;98283.78;2068142;28;20205;-62
2022/03/18 04:34:40;;;;;;;19.08;12.88;;;;;;;4.91;99.81;98288.06;2068150;28;20194;-62
2022/03/18 04:35:41;;;;;;;19.98;11.43;;;;;;;4.84;99.85;98283.91;2067866;28;20233;-62
2022/03/18 04:36:43;;;;;;;17.05;12.15;;;;;;;4.90;99.98;98286.38;2070154;28;20202;-62
2022/03/18 04:37:44;;;;;;;25.48;13.05;;;;;;;4.90;99.71;98288.97;2065838;28;20608;-62
2022/03/18 04:38:46;;;;;;;19.75;12.38;;;;;;;4.95;99.97;98292.31;2066804;28;20206;-62
2022/03/18 04:39:47;;;;;;;19.88;11.40;;;;;;;4.93;98.88;98296.69;2066781;28;20677;-62
2022/03/18 04:40:49;;;;;;;19.15;12.25;;;;;;;4.81;99.63;98296.06;2069180;28;20222;-63
2022/03/18 04:41:51;;;;;;;20.05;11.65;;;;;;;4.82;99.59;98289.97;2068815;28;20531;-62
2022/03/18 04:42:52;;;;;;;19.65;12.68;;;;;;;4.84;99.92;98290.81;2069575;28;20208;-62
2022/03/18 04:43:53;;;;;;;18.40;11.70;;;;;;;4.76;100.00;98288.34;2068340;28;20551;-63
2022/03/18 04:44:55;;;;;;;21.23;11.32;;;;;;;4.75;100.00;98287.50;2068129;28;20244;-62
2022/03/18 04:45:56;;;;;;;20.90;11.57;;;;;;;4.77;100.00;98291.84;2067773;28;20234;-63
2022/03/18 04:46:58;;;;;;;19.63;11.50;;;;;;;4.80;100.00;98289.16;2072212;28;20240;-63
2022/03/18 04:47:59;;;;;;;23.25;12.80;;;;;;;4.77;100.00;98287.50;2070685;28;20288;-63
2022/03/18 04:49:01;;;;;;;19.88;11.60;;;;;;;4.79;100.00;98293.50;2070987;28;20602;-62
2022/03/18 04:50:04;;;;;;;18.50;11.65;;;;;;;4.79;100.00;98297.84;2069810;28;20202;-62
2022/03/18 04:51:06;;;;;;;23.10;12.68;;;;;;;4.79;99.76;98301.28;2068210;28;20214;-62
2022/03/18 04:52:08;;;;;;;22.60;12.23;;;;;;;4.80;100.00;98294.34;2069527;28;20202;-62
2022/03/18 04:53:09;;;;;;;21.30;12.38;;;;;;;4.74;100.00;98295.31;2069720;28;20552;-63
2022/03/18 04:54:11;;;;;;;18.27;11.52;;;;;;;4.78;100.00;98299.56;2070172;28;20198;-62